WELCOME TO Fly Ecuador Virtual

Fly Ecuador Virtual es una organización creada con el fin de brindar una plataforma que permita a los pilotos virtuales, principalmente ecuatorianos, tener un lugar donde registrar sus horas de vuelo, sus certificados de conocimiento adquiridos, las rutas que han volado y los destinos que han visitado. Así mismo, se busca ayudar a todos los pilotos a expandir su conocimiento sobre el mundo de la aviación real y virtual por medio de publicaciones, foros y cursos en línea.

A diferencia de las aerolíneas virtuales tradicionales, Fly Ecuador Virtual no simula las operaciones de una aerolínea del mundo real en específico. Un miembro de Fly Ecuador Virtual tiene toda la libertad de volar cualquier aeronave que opere en el espacio aéreo ecuatoriano real, en cualquier ruta, sea esta nacional o internacional, IFR o VFR, aeronaves monomotor, multimotor o helicópteros. Todo esto con el objetivo de expandir las operaciones virtuales dentro del espacio aéreo ecuatoriano, creando una comunidad en la que se compartan conocimientos y experiencias que beneficien a todos sus integrantes.

El crecimiento de Fly Ecuador Virtual depende de la participación conjunta de todos sus miembros, por este motivo se incentiva la participación en línea a través de los diferentes medios descritos más adelante en este sitio web.

 STATISTICS

Pilots 77
Aircraft in fleet 0
Routes 0
Total hours: 10511.12
Flights total 1674
Flights Regular 0
Flights Charter 1721
% Flights Regular 0.00 %

 LATEST FLIGHTS

CallsignPilotDepartureArrivalDateFlight Time
ECU070Luis Jaramillo  SKCL  SEGU 2018-09-16 1.24
ECU024Arturo Carvajal  SEGU  SEQM 2018-09-16 0.54
ECU024Arturo Carvajal  SEMC  SEQM 2018-09-09 0.47
ECU070Luis Jaramillo  SEQM  SKCL 2018-09-06 0.85
ECU024Arturo Carvajal  SEMC  SEQM 2018-09-03 0.48

 NEWEST PILOTS

 Consultar METAR

METAR
SEGU - José Joaquín de Olmedo International Airport, Guayaquil, ECU
Distance from station: N 0mi, 0km
Updated: Wed, 26-Sep-2018 12:00am PDT
Mostly Cloudy
Mostly Cloudy
 Wind from SW
Wind: SW 9 mph , 15 km/h
Temperature: 73°F , 23°C
Dew Point: 66°F , 19°C
Humidity: 78%
Barometer: 29.83 inHg , 1010 hPa
Clouds: Mostly Cloudy
Visibility: 6 miles , 10 km
Cloud details: Partly Cloudy 1000 ft
Mostly Cloudy 2300 ft
2018/09/26 07:00 SEGU 260700Z 23008KT 9999 SCT010 BKN023 23/19 Q1010 NOSIG RMK A 2985
 
SEQM - Aeropuerto Internacional Mariscal Sucre, ECU
Distance from station: NE 120mi, 200km
Updated: Wed, 26-Sep-2018 12:00am PDT
Mist, Overcast
Mist, Overcast
 Wind from ESE
Wind: ESE 2 mph , 4 km/h
Temperature: 55°F , 13°C
Dew Point: 55°F , 13°C
Humidity: 100%
Barometer: 30.27 inHg , 1025 hPa
Summary: Mist
Clouds: Overcast
Visibility: 3 miles , 5 km
Cloud details: Overcast 400 ft
2018/09/26 07:00 SEQM 260700Z 11002KT 5000 BR OVC004 13/13 Q1025 NOSIG RMK A3027
 
SECU - Mariscal Lamar Airpor, ECU
Distance from station: ENE 80mi, 120km
Updated: Wed, 26-Sep-2018 12:00am PDT

 Wind from varies
Wind: varies 2 mph , 4 km/h
2018/09/26 07:00 SECU 260700Z AUTO VRB02KT ////NDV NCD 11/07 Q1025
 
SELT - Cotopaxi International Airport, ECU
Distance from station: NW 21mi, 34km
Updated: Wed, 26-Sep-2018 12:00am PDT
Mostly Cloudy
Mostly Cloudy
 Wind from SSW
Wind: SSW 8 mph , 13 km/h
Temperature: 52°F , 11°C
Dew Point: 46°F , 8°C
Humidity: 82%
Barometer: 30.39 inHg , 1029 hPa
Clouds: Mostly Cloudy
Visibility: 6 miles , 10 km
Cloud details: Mostly Cloudy 3000 ft
2018/09/26 07:00 SELT 260700Z 20007KT 9999 BKN030 11/08 Q1029
 
SEMT - Eloy Alfaro International Airport, ECU
Distance from station: SSE 70mi, 100km
Updated: Wed, 26-Sep-2018 12:00am PDT
Overcast
Overcast
 Wind from SSW
Wind: SSW 8 mph , 13 km/h
Temperature: 72°F , 22°C
Dew Point: 68°F , 20°C
Humidity: 88%
Barometer: 29.85 inHg , 1011 hPa
Clouds: Overcast
Visibility: 6 miles , 10 km
Cloud details: Overcast 1600 ft
2018/09/26 07:00 SEMT 260700Z 21007KT 9999 OVC016 22/20 Q1011 RMK A2988

Metar display script from Saratoga-Weather.org

 NOTAMS

NOTAMDate



Fly Ecuador Virtual 2018 | System by VAM